Favola — IBFH — position and weather

sailwx.info

Track history (hours):
 
Tides and Currents Weather Stations Pressure Air Temp Water Temp Dewpoint Dewpoint Depression Visibility Wind Speed Wind Dir Waves Ship Positions

Favola

Last reported at 2014-Dec-18 01:23 UTC. Time now 2014-Dec-18 22:25 UTC.
Position N 39°08' W 009°57'.

Length 180 m; draft 7.1 m.

Type: Ship (hazmat cat A). MMSI: 247069800.

Date/timePositionNaut miles runAvg speedWind from/ knotsBaromVisibWave heightAir tempDewpointWater temp
2014-Dec-18 01:23N 39°08' W 009°57'1011.5
2014-Dec-18 00:30N 38°58' W 009°57'1111.3
2014-Dec-17 23:34N 38°47' W 009°57'1211.5
2014-Dec-17 22:30N 38°35' W 009°55'1111.6
2014-Dec-17 21:32N 38°24' W 009°52'1611.3
2014-Dec-17 20:10N 38°09' W 009°48'1011.2
2014-Dec-17 19:18N 37°59' W 009°45'811.4
2014-Dec-17 18:33N 37°51' W 009°43'1111.3
2014-Dec-17 17:33N 37°40' W 009°39'1211.5
2014-Dec-17 16:33N 37°29' W 009°35'21611.4
2014-Dec-16 21:34N 35°60' W 005°29'7 2.1
2014-Dec-16 18:22N 36°05' W 005°24'0 0.0
2014-Dec-16 17:31N 36°06' W 005°24'0 0.0
2014-Dec-16 16:28N 36°06' W 005°25'0 0.0
2014-Dec-16 15:28N 36°06' W 005°25'3 2.8
2014-Dec-16 14:33N 36°05' W 005°21'9 8.9
2014-Dec-16 13:32N 36°06' W 005°10'  
2014-Dec-12 15:11N 36°06' W 005°08'811.6
2014-Dec-12 14:32N 36°05' W 005°18'5 4.7
2014-Dec-12 13:33N 36°08' W 005°22'0 0.0
2014-Dec-12 12:33N 36°08' W 005°22'0 0.0
2014-Dec-12 11:30N 36°08' W 005°22'0 0.0
2014-Dec-12 10:33N 36°08' W 005°22'0 0.0
2014-Dec-12 09:33N 36°08' W 005°22'0 0.0
2014-Dec-12 08:33N 36°08' W 005°22'0 0.0
2014-Dec-12 07:33N 36°08' W 005°22'0 0.0
2014-Dec-12 06:33N 36°08' W 005°22'0 0.0
2014-Dec-12 05:33N 36°08' W 005°22'0 0.0
2014-Dec-12 04:33N 36°08' W 005°22'0 0.0
2014-Dec-12 03:33N 36°08' W 005°22'0 0.0
2014-Dec-12 02:33N 36°08' W 005°22'0 0.0
2014-Dec-12 01:33N 36°08' W 005°22'0 0.0
2014-Dec-12 00:30N 36°08' W 005°22'0 0.0
2014-Dec-11 23:26N 36°08' W 005°22'0 0.0
2014-Dec-11 22:32N 36°08' W 005°22'0 0.0
2014-Dec-11 21:32N 36°08' W 005°22'0 0.0
2014-Dec-11 20:29N 36°08' W 005°22'0 0.0
2014-Dec-11 19:32N 36°08' W 005°22'0 0.0
2014-Dec-11 18:26N 36°08' W 005°22'0 0.0
2014-Dec-11 17:29N 36°08' W 005°22'0 0.0
2014-Dec-11 16:26N 36°08' W 005°22'0 0.0
2014-Dec-11 15:32N 36°08' W 005°22'0 0.0
2014-Dec-11 14:32N 36°08' W 005°22'0 0.0
2014-Dec-11 13:32N 36°08' W 005°22'0 0.0
2014-Dec-11 12:32N 36°08' W 005°22'0 0.0
2014-Dec-11 11:14N 36°08' W 005°22'0 0.0
2014-Dec-11 10:32N 36°08' W 005°22'0 0.0
2014-Dec-11 09:32N 36°08' W 005°22'1 0.6
2014-Dec-11 08:33N 36°08' W 005°22'4 4.2
2014-Dec-11 07:33N 36°06' W 005°18'2 1.7
2014-Dec-11 06:28N 36°07' W 005°18'0 0.0
2014-Dec-11 05:31N 36°07' W 005°18'0 0.0
2014-Dec-11 04:22N 36°07' W 005°18'0 0.1
2014-Dec-11 03:31N 36°07' W 005°18'0 0.0
2014-Dec-11 02:28N 36°07' W 005°18'0 0.0
2014-Dec-11 01:31N 36°07' W 005°18'0 0.0
2014-Dec-11 00:31N 36°07' W 005°18'0 0.1
2014-Dec-10 23:28N 36°07' W 005°18'0 0.0
2014-Dec-10 22:31N 36°07' W 005°18'0 0.0
2014-Dec-10 21:28N 36°07' W 005°18'2 2.4
2014-Dec-10 20:33N 36°08' W 005°15'  
Track history (hours):
 
Tides and Currents Weather Stations Pressure Air Temp Water Temp Dewpoint Dewpoint Depression Visibility Wind Speed Wind Dir Waves Ship Positions

Favola

Last reported at 2014-Dec-18 01:23 UTC. Time now 2014-Dec-18 22:25 UTC.
Position N 39°08' W 009°57'.

Length 180 m; draft 7.1 m.

Type: Ship (hazmat cat A). MMSI: 247069800.

Date/timePositionNaut miles runAvg speedWind from/ knotsBaromVisibWave heightAir tempDewpointWater temp
2014-Dec-18 01:23N 39°08' W 009°57'1011.5
2014-Dec-18 00:30N 38°58' W 009°57'1111.3
2014-Dec-17 23:34N 38°47' W 009°57'1211.5
2014-Dec-17 22:30N 38°35' W 009°55'1111.6
2014-Dec-17 21:32N 38°24' W 009°52'1611.3
2014-Dec-17 20:10N 38°09' W 009°48'1011.2
2014-Dec-17 19:18N 37°59' W 009°45'811.4
2014-Dec-17 18:33N 37°51' W 009°43'1111.3
2014-Dec-17 17:33N 37°40' W 009°39'1211.5
2014-Dec-17 16:33N 37°29' W 009°35'21611.4
2014-Dec-16 21:34N 35°60' W 005°29'7 2.1
2014-Dec-16 18:22N 36°05' W 005°24'0 0.0
2014-Dec-16 17:31N 36°06' W 005°24'0 0.0
2014-Dec-16 16:28N 36°06' W 005°25'0 0.0
2014-Dec-16 15:28N 36°06' W 005°25'3 2.8
2014-Dec-16 14:33N 36°05' W 005°21'9 8.9
2014-Dec-16 13:32N 36°06' W 005°10'  
2014-Dec-12 15:11N 36°06' W 005°08'811.6
2014-Dec-12 14:32N 36°05' W 005°18'5 4.7
2014-Dec-12 13:33N 36°08' W 005°22'0 0.0
2014-Dec-12 12:33N 36°08' W 005°22'0 0.0
2014-Dec-12 11:30N 36°08' W 005°22'0 0.0
2014-Dec-12 10:33N 36°08' W 005°22'0 0.0
2014-Dec-12 09:33N 36°08' W 005°22'0 0.0
2014-Dec-12 08:33N 36°08' W 005°22'0 0.0
2014-Dec-12 07:33N 36°08' W 005°22'0 0.0
2014-Dec-12 06:33N 36°08' W 005°22'0 0.0
2014-Dec-12 05:33N 36°08' W 005°22'0 0.0
2014-Dec-12 04:33N 36°08' W 005°22'0 0.0
2014-Dec-12 03:33N 36°08' W 005°22'0 0.0
2014-Dec-12 02:33N 36°08' W 005°22'0 0.0
2014-Dec-12 01:33N 36°08' W 005°22'0 0.0
2014-Dec-12 00:30N 36°08' W 005°22'0 0.0
2014-Dec-11 23:26N 36°08' W 005°22'0 0.0
2014-Dec-11 22:32N 36°08' W 005°22'0 0.0
2014-Dec-11 21:32N 36°08' W 005°22'0 0.0
2014-Dec-11 20:29N 36°08' W 005°22'0 0.0
2014-Dec-11 19:32N 36°08' W 005°22'0 0.0
2014-Dec-11 18:26N 36°08' W 005°22'0 0.0
2014-Dec-11 17:29N 36°08' W 005°22'0 0.0
2014-Dec-11 16:26N 36°08' W 005°22'0 0.0
2014-Dec-11 15:32N 36°08' W 005°22'0 0.0
2014-Dec-11 14:32N 36°08' W 005°22'0 0.0
2014-Dec-11 13:32N 36°08' W 005°22'0 0.0
2014-Dec-11 12:32N 36°08' W 005°22'0 0.0
2014-Dec-11 11:14N 36°08' W 005°22'0 0.0
2014-Dec-11 10:32N 36°08' W 005°22'0 0.0
2014-Dec-11 09:32N 36°08' W 005°22'1 0.6
2014-Dec-11 08:33N 36°08' W 005°22'4 4.2
2014-Dec-11 07:33N 36°06' W 005°18'2 1.7
2014-Dec-11 06:28N 36°07' W 005°18'0 0.0
2014-Dec-11 05:31N 36°07' W 005°18'0 0.0
2014-Dec-11 04:22N 36°07' W 005°18'0 0.1
2014-Dec-11 03:31N 36°07' W 005°18'0 0.0
2014-Dec-11 02:28N 36°07' W 005°18'0 0.0
2014-Dec-11 01:31N 36°07' W 005°18'0 0.0
2014-Dec-11 00:31N 36°07' W 005°18'0 0.1
2014-Dec-10 23:28N 36°07' W 005°18'0 0.0
2014-Dec-10 22:31N 36°07' W 005°18'0 0.0
2014-Dec-10 21:28N 36°07' W 005°18'2 2.4
2014-Dec-10 20:33N 36°08' W 005°15'  

Dump ship's entire track history